createdAt,value
2018-03-08T13:06:07.000Z,28.6
2018-03-08T13:08:07.000Z,28.3
2018-03-08T13:10:07.000Z,27.9
2018-03-08T13:11:07.000Z,27.8
2018-03-08T13:12:51.000Z,27.7
2018-03-08T13:14:07.000Z,27.5
2018-03-08T13:16:07.000Z,27.2
2018-03-08T13:17:07.000Z,27
2018-03-08T13:18:07.000Z,26.9
2018-03-08T13:20:07.000Z,26.7
2018-03-08T13:21:07.000Z,26.9
2018-03-08T13:23:07.000Z,27.2
2018-03-08T13:24:07.000Z,27.4
2018-03-08T13:25:07.000Z,27.6
2018-03-08T13:27:07.000Z,27.9
2018-03-08T13:28:07.000Z,28
2018-03-08T13:29:07.000Z,28.2
2018-03-08T13:30:07.000Z,28.4
2018-03-08T13:32:07.000Z,28.6
2018-03-08T13:34:07.000Z,28.8
2018-03-08T13:35:07.000Z,28.9
2018-03-08T13:37:07.000Z,29
2018-03-08T13:39:07.000Z,29
2018-03-08T13:40:07.000Z,29.1
2018-03-08T13:42:07.000Z,29.2
2018-03-08T13:44:07.000Z,29.3
2018-03-08T13:46:07.000Z,29.3
2018-03-08T13:47:07.000Z,29.3
2018-03-08T13:48:07.000Z,29.4
2018-03-08T13:49:51.000Z,29.6
2018-03-08T13:51:07.000Z,29.6
2018-03-08T13:53:07.000Z,29.6
2018-03-08T13:54:07.000Z,29.6
2018-03-08T13:56:07.000Z,29.7
2018-03-08T13:58:07.000Z,29.7
2018-03-08T13:59:07.000Z,29.7
2018-03-08T14:01:07.000Z,29.8
2018-03-08T14:03:07.000Z,29.9
2018-03-08T14:04:07.000Z,29.9
2018-03-08T14:05:07.000Z,29.9
2018-03-08T14:07:07.000Z,30
2018-03-08T14:09:07.000Z,30
2018-03-08T14:11:07.000Z,30
2018-03-08T14:12:07.000Z,29.9
2018-03-08T14:14:07.000Z,29.9
2018-03-08T14:16:07.000Z,29.9
2018-03-08T14:18:07.000Z,29.9
2018-03-08T14:19:07.000Z,29.9
2018-03-08T14:20:07.000Z,29.9
2018-03-08T14:22:07.000Z,30
2018-03-08T14:23:07.000Z,30
2018-03-08T14:25:07.000Z,29.9
2018-03-08T14:26:07.000Z,29.9
2018-03-08T14:28:07.000Z,29.9
2018-03-08T14:29:07.000Z,29.9
2018-03-08T14:30:07.000Z,29.9
2018-03-08T14:31:07.000Z,30
2018-03-08T14:32:07.000Z,30
2018-03-08T14:33:07.000Z,30
2018-03-08T14:35:07.000Z,30.1
2018-03-08T14:36:07.000Z,30.1
2018-03-08T14:38:07.000Z,30.1
2018-03-08T14:40:07.000Z,30
2018-03-08T14:41:07.000Z,30
2018-03-08T14:42:07.000Z,30
2018-03-08T14:44:07.000Z,29.9
2018-03-08T14:45:07.000Z,29.9
2018-03-08T14:47:07.000Z,29.8
2018-03-08T14:49:07.000Z,29.7
2018-03-08T14:50:07.000Z,29.6
2018-03-08T14:51:07.000Z,29.6
2018-03-08T14:52:07.000Z,29.6
2018-03-08T14:53:07.000Z,29.6
2018-03-08T14:55:07.000Z,29.6
2018-03-08T14:57:07.000Z,29.6
2018-03-08T14:58:07.000Z,29.6
2018-03-08T14:59:07.000Z,29.6
2018-03-08T15:01:07.000Z,29.5
2018-03-08T15:03:07.000Z,29.5
2018-03-08T15:04:07.000Z,29.5
2018-03-08T15:05:07.000Z,29.6
2018-03-08T15:07:07.000Z,29.7
2018-03-08T15:08:07.000Z,29.7
2018-03-08T15:09:51.000Z,29.7
2018-03-08T15:11:07.000Z,29.6
2018-03-08T15:12:07.000Z,29.4
2018-03-08T15:14:07.000Z,28.7
2018-03-08T15:16:07.000Z,28.1
2018-03-08T15:18:07.000Z,27.4
2018-03-08T15:20:07.000Z,26.9
2018-03-08T15:22:07.000Z,26.5
2018-03-08T15:23:07.000Z,26.3
2018-03-08T15:24:07.000Z,26.3
2018-03-08T15:26:07.000Z,26.1
2018-03-08T15:27:07.000Z,26
2018-03-08T15:29:07.000Z,25.9
2018-03-08T15:31:07.000Z,25.8
2018-03-08T15:32:07.000Z,25.8
2018-03-08T15:34:07.000Z,25.7
2018-03-08T15:36:07.000Z,25.6
2018-03-08T15:37:07.000Z,25.5
2018-03-08T15:38:07.000Z,25.5
2018-03-08T15:40:07.000Z,25.5
2018-03-08T15:42:07.000Z,25.3
2018-03-08T15:43:07.000Z,25.1
2018-03-08T15:45:07.000Z,25
2018-03-08T15:46:51.000Z,25
2018-03-08T15:48:07.000Z,24.9
2018-03-08T15:49:07.000Z,24.9
2018-03-08T15:50:07.000Z,24.8
2018-03-08T15:52:07.000Z,24.8
2018-03-08T15:53:07.000Z,24.7
2018-03-08T15:55:07.000Z,24.6
2018-03-08T15:57:07.000Z,24.5
2018-03-08T15:58:07.000Z,24.4
2018-03-08T16:00:07.000Z,24.3
2018-03-08T16:02:07.000Z,24.2
2018-03-08T16:04:07.000Z,24.1
2018-03-08T16:05:07.000Z,24.1
2018-03-08T16:07:07.000Z,23.9
2018-03-08T16:09:07.000Z,23.7
2018-03-08T16:11:07.000Z,23.7
2018-03-08T16:12:07.000Z,23.9
2018-03-08T16:14:07.000Z,24.2
2018-03-08T16:15:07.000Z,24.4
2018-03-08T16:17:06.000Z,24.7
2018-03-08T16:19:06.000Z,24.9
2018-03-08T16:20:06.000Z,25
2018-03-08T16:21:06.000Z,25.2
2018-03-08T16:23:06.000Z,25.5
2018-03-08T16:24:06.000Z,25.6
2018-03-08T16:26:06.000Z,25.7
2018-03-08T16:28:06.000Z,25.8
2018-03-08T16:30:06.000Z,25.8
2018-03-08T16:31:06.000Z,25.8
2018-03-08T16:33:06.000Z,26
2018-03-08T16:34:06.000Z,26
2018-03-08T16:35:06.000Z,26.1
2018-03-08T16:37:06.000Z,26.1
2018-03-08T16:39:06.000Z,26.2
2018-03-08T16:41:06.000Z,26.3
2018-03-08T16:43:06.000Z,26.3
2018-03-08T16:45:06.000Z,26.4
2018-03-08T16:47:06.000Z,26.5
2018-03-08T16:48:06.000Z,26.5
2018-03-08T16:50:06.000Z,26.6
2018-03-08T16:52:06.000Z,26.7
2018-03-08T16:53:06.000Z,26.8
2018-03-08T16:54:06.000Z,26.9
2018-03-08T16:56:06.000Z,26.9
2018-03-08T16:58:06.000Z,26.9
2018-03-08T16:59:06.000Z,27
2018-03-08T17:01:06.000Z,27
2018-03-08T17:03:06.000Z,27
2018-03-08T17:04:06.000Z,27.1
2018-03-08T17:06:06.000Z,27.1
2018-03-08T17:07:06.000Z,27.2
2018-03-08T17:09:06.000Z,27.3
2018-03-08T17:10:06.000Z,27.3
2018-03-08T17:12:06.000Z,27.4
2018-03-08T17:13:06.000Z,27.5
2018-03-08T17:15:06.000Z,27.5
2018-03-08T17:16:06.000Z,27.5
2018-03-08T17:17:06.000Z,27.5
2018-03-08T17:19:06.000Z,27.5
2018-03-08T17:20:06.000Z,27.5
2018-03-08T17:22:06.000Z,27.5
2018-03-08T17:24:06.000Z,27.5
2018-03-08T17:25:06.000Z,27.5
2018-03-08T17:27:06.000Z,27.6
2018-03-08T17:28:06.000Z,27.6
2018-03-08T17:30:06.000Z,27.6
2018-03-08T17:31:06.000Z,27.6
2018-03-08T17:32:06.000Z,27.7
2018-03-08T17:33:51.000Z,27.7
2018-03-08T17:35:06.000Z,27.7
2018-03-08T17:36:06.000Z,27.7
2018-03-08T17:37:06.000Z,27.8
2018-03-08T17:38:06.000Z,27.8
2018-03-08T17:39:06.000Z,27.9
2018-03-08T17:40:06.000Z,27.9
2018-03-08T17:42:06.000Z,27.9
2018-03-08T17:44:06.000Z,27.9
2018-03-08T17:45:06.000Z,27.9
2018-03-08T17:46:06.000Z,27.9
2018-03-08T17:47:06.000Z,27.9
2018-03-08T17:49:06.000Z,27.9
2018-03-08T17:51:06.000Z,27.9
2018-03-08T17:52:06.000Z,28
2018-03-08T17:53:06.000Z,28
2018-03-08T17:54:51.000Z,28
2018-03-08T17:56:06.000Z,28
2018-03-08T17:57:06.000Z,28
2018-03-08T17:58:06.000Z,28.1
2018-03-08T18:00:06.000Z,28.1
2018-03-08T18:01:06.000Z,28.1
2018-03-08T18:02:06.000Z,28.2
2018-03-08T18:04:06.000Z,28.2
2018-03-08T18:06:06.000Z,28.1
2018-03-08T18:08:06.000Z,28.1
2018-03-08T18:10:06.000Z,28
2018-03-08T18:11:06.000Z,28
2018-03-08T18:13:06.000Z,28.1
2018-03-08T18:14:06.000Z,28.1
2018-03-08T18:16:06.000Z,28.1
2018-03-08T18:17:06.000Z,28.2
2018-03-08T18:19:06.000Z,28.1
2018-03-08T18:21:06.000Z,28.1
2018-03-08T18:23:06.000Z,28.1
2018-03-08T18:24:06.000Z,28.1
2018-03-08T18:25:06.000Z,28.1
2018-03-08T18:27:06.000Z,28.1
2018-03-08T18:29:06.000Z,28.1
2018-03-08T18:30:51.000Z,28.1
2018-03-08T18:32:06.000Z,28.1
2018-03-08T18:34:06.000Z,28.1
2018-03-08T18:35:06.000Z,28.2
2018-03-08T18:37:06.000Z,28.2
2018-03-08T18:38:51.000Z,28.2
2018-03-08T18:40:06.000Z,28.2
2018-03-08T18:42:06.000Z,28.2
2018-03-08T18:44:06.000Z,28.2
2018-03-08T18:46:06.000Z,28.2
2018-03-08T18:48:06.000Z,28.2
2018-03-08T18:50:06.000Z,28.2
2018-03-08T18:51:06.000Z,28.3
2018-03-08T18:52:06.000Z,28.3
2018-03-08T18:54:06.000Z,28.4
2018-03-08T18:56:06.000Z,28.4
2018-03-08T18:57:06.000Z,28.4
2018-03-08T18:58:06.000Z,28.4
2018-03-08T18:59:06.000Z,28.5
2018-03-08T19:00:06.000Z,28.6
2018-03-08T19:01:51.000Z,28.7
2018-03-08T19:03:06.000Z,28.6
2018-03-08T19:05:06.000Z,28.6
2018-03-08T19:06:06.000Z,28.6
2018-03-08T19:07:06.000Z,28.7
2018-03-08T19:09:06.000Z,28.7
2018-03-08T19:11:06.000Z,28.6
2018-03-08T19:12:06.000Z,28.6
2018-03-08T19:14:06.000Z,28.6
2018-03-08T19:15:06.000Z,28.6
2018-03-08T19:17:06.000Z,28.6
2018-03-08T19:18:06.000Z,28.6
2018-03-08T19:19:06.000Z,28.6
2018-03-08T19:21:06.000Z,28.7
2018-03-08T19:23:06.000Z,28.7
2018-03-08T19:25:06.000Z,28.7
2018-03-08T19:26:06.000Z,28.6
2018-03-08T19:28:06.000Z,28.7
2018-03-08T19:29:06.000Z,28.7
2018-03-08T19:30:06.000Z,28.7
2018-03-08T19:31:51.000Z,28.8
2018-03-08T19:33:06.000Z,28.8
2018-03-08T19:34:06.000Z,28.8
2018-03-08T19:35:06.000Z,28.8
2018-03-08T19:36:06.000Z,28.8
2018-03-08T19:37:06.000Z,28.8
2018-03-08T19:39:06.000Z,28.8
2018-03-08T19:40:06.000Z,28.7
2018-03-08T19:41:06.000Z,28.8
2018-03-08T19:42:06.000Z,28.8
2018-03-08T19:44:06.000Z,28.9
2018-03-08T19:46:06.000Z,28.7
2018-03-08T19:47:06.000Z,28.7
2018-03-08T19:48:06.000Z,28.7
2018-03-08T19:50:06.000Z,28.7
2018-03-08T19:51:06.000Z,28.7
2018-03-08T19:53:06.000Z,28.7
2018-03-08T19:54:06.000Z,28.7
2018-03-08T19:55:06.000Z,28.7
2018-03-08T19:56:51.000Z,28.7
2018-03-08T19:58:06.000Z,28.6
2018-03-08T19:59:06.000Z,28.6
2018-03-08T20:00:06.000Z,28.6
2018-03-08T20:02:06.000Z,28.7
2018-03-08T20:04:06.000Z,28.5
2018-03-08T20:05:06.000Z,28.5
2018-03-08T20:06:51.000Z,28.5
2018-03-08T20:08:06.000Z,28.4
2018-03-08T20:10:06.000Z,28.4
2018-03-08T20:11:06.000Z,28.4
2018-03-08T20:12:06.000Z,28.4
2018-03-08T20:14:06.000Z,28.4
2018-03-08T20:15:06.000Z,28.4
2018-03-08T20:17:06.000Z,28.3
2018-03-08T20:18:06.000Z,28.3
2018-03-08T20:20:06.000Z,28.3
2018-03-08T20:21:06.000Z,28.3
2018-03-08T20:23:06.000Z,28.3
2018-03-08T20:25:06.000Z,28.3
2018-03-08T20:26:06.000Z,28.3
2018-03-08T20:28:06.000Z,28.3
2018-03-08T20:29:06.000Z,28.3
2018-03-08T20:30:06.000Z,28.4
2018-03-08T20:32:06.000Z,28.4
2018-03-08T20:34:06.000Z,28.3
2018-03-08T20:35:06.000Z,28.3
2018-03-08T20:36:06.000Z,28.3
2018-03-08T20:38:06.000Z,28.3
2018-03-08T20:39:06.000Z,28.3
2018-03-08T20:41:06.000Z,28.3
2018-03-08T20:43:06.000Z,28.2
2018-03-08T20:44:51.000Z,28.2
2018-03-08T20:46:06.000Z,28.1
2018-03-08T20:48:06.000Z,28.1
2018-03-08T20:49:51.000Z,28.1
2018-03-08T20:51:06.000Z,28
2018-03-08T20:53:06.000Z,28
2018-03-08T20:55:06.000Z,28
2018-03-08T20:56:06.000Z,28
2018-03-08T20:57:06.000Z,28.1
2018-03-08T20:59:06.000Z,28.1
2018-03-08T21:01:06.000Z,28.1
2018-03-08T21:03:06.000Z,28
2018-03-08T21:05:06.000Z,27.9
2018-03-08T21:06:06.000Z,27.9
2018-03-08T21:07:06.000Z,27.9
2018-03-08T21:08:06.000Z,27.9
2018-03-08T21:10:06.000Z,28
2018-03-08T21:11:06.000Z,28
2018-03-08T21:12:06.000Z,28
2018-03-08T21:14:06.000Z,28.1
2018-03-08T21:15:51.000Z,28.1
2018-03-08T21:17:06.000Z,28
2018-03-08T21:18:06.000Z,28
2018-03-08T21:20:06.000Z,28
2018-03-08T21:22:06.000Z,28
2018-03-08T21:24:06.000Z,27.9
2018-03-08T21:25:51.000Z,27.9
2018-03-08T21:27:06.000Z,27.9
2018-03-08T21:28:06.000Z,27.9
2018-03-08T21:30:06.000Z,27.9
2018-03-08T21:31:06.000Z,27.9
2018-03-08T21:33:06.000Z,28
2018-03-08T21:35:06.000Z,27.9
2018-03-08T21:37:06.000Z,27.8
2018-03-08T21:38:06.000Z,27.8
2018-03-08T21:39:06.000Z,27.8
2018-03-08T21:41:06.000Z,27.9
2018-03-08T21:42:06.000Z,27.9
2018-03-08T21:44:06.000Z,28
2018-03-08T21:46:06.000Z,27.9
2018-03-08T21:47:06.000Z,27.9
2018-03-08T21:48:06.000Z,27.9
2018-03-08T21:49:06.000Z,27.9
2018-03-08T21:51:06.000Z,27.9
2018-03-08T21:52:06.000Z,28
2018-03-08T21:54:06.000Z,28
2018-03-08T21:55:06.000Z,28
2018-03-08T21:56:51.000Z,28
2018-03-08T21:58:06.000Z,28
2018-03-08T22:00:06.000Z,27.9
2018-03-08T22:01:06.000Z,27.9
2018-03-08T22:02:06.000Z,27.9
2018-03-08T22:04:06.000Z,27.8
2018-03-08T22:05:06.000Z,27.8
2018-03-08T22:06:06.000Z,27.8
2018-03-08T22:08:06.000Z,27.8
2018-03-08T22:09:51.000Z,27.8
2018-03-08T22:11:06.000Z,27.8
2018-03-08T22:13:06.000Z,27.7
2018-03-08T22:15:06.000Z,27.6
2018-03-08T22:17:06.000Z,27.7
2018-03-08T22:18:06.000Z,27.7
2018-03-08T22:20:06.000Z,27.7
2018-03-08T22:21:06.000Z,27.8
2018-03-08T22:22:06.000Z,27.8
2018-03-08T22:23:06.000Z,27.9
2018-03-08T22:25:06.000Z,28
2018-03-08T22:27:06.000Z,27.9
2018-03-08T22:28:06.000Z,27.9
2018-03-08T22:30:06.000Z,27.9
2018-03-08T22:32:06.000Z,27.7
2018-03-08T22:33:06.000Z,27.7
2018-03-08T22:35:06.000Z,27.7
2018-03-08T22:37:06.000Z,27.7
2018-03-08T22:38:06.000Z,27.7
2018-03-08T22:40:06.000Z,27.7
2018-03-08T22:42:06.000Z,27.7
2018-03-08T22:43:06.000Z,27.7
2018-03-08T22:45:06.000Z,27.7
2018-03-08T22:47:06.000Z,27.6
2018-03-08T22:49:06.000Z,27.6
2018-03-08T22:50:06.000Z,27.6
2018-03-08T22:52:06.000Z,27.7
2018-03-08T22:53:06.000Z,27.7
2018-03-08T22:54:06.000Z,27.7
2018-03-08T22:56:06.000Z,27.8
2018-03-08T22:57:06.000Z,27.8
2018-03-08T22:58:51.000Z,27.8
2018-03-08T23:00:06.000Z,27.7
2018-03-08T23:02:06.000Z,27.6
2018-03-08T23:04:06.000Z,27.5
2018-03-08T23:05:06.000Z,27.5
2018-03-08T23:07:06.000Z,27.6
2018-03-08T23:08:06.000Z,27.6
2018-03-08T23:10:06.000Z,27.7
2018-03-08T23:11:06.000Z,27.7
2018-03-08T23:12:06.000Z,27.8
2018-03-08T23:14:06.000Z,27.8
2018-03-08T23:15:06.000Z,27.8
2018-03-08T23:16:06.000Z,27.9
2018-03-08T23:18:06.000Z,27.8
2018-03-08T23:19:06.000Z,27.7
2018-03-08T23:20:06.000Z,27.7
2018-03-08T23:22:06.000Z,27.7
2018-03-08T23:23:06.000Z,27.7
2018-03-08T23:25:06.000Z,27.7
2018-03-08T23:27:06.000Z,27.6
2018-03-08T23:29:06.000Z,27.5
2018-03-08T23:30:06.000Z,27.5
2018-03-08T23:31:06.000Z,27.6
2018-03-08T23:32:51.000Z,27.6
2018-03-08T23:34:06.000Z,27.6
2018-03-08T23:36:06.000Z,27.6
2018-03-08T23:37:06.000Z,27.6
2018-03-08T23:38:06.000Z,27.7
2018-03-08T23:40:06.000Z,27.7
2018-03-08T23:42:06.000Z,27.6
2018-03-08T23:44:06.000Z,27.5
2018-03-08T23:45:06.000Z,27.5
2018-03-08T23:47:06.000Z,27.6
2018-03-08T23:49:06.000Z,27.6
2018-03-08T23:50:06.000Z,27.6
2018-03-08T23:52:06.000Z,27.6
2018-03-08T23:53:06.000Z,27.6
2018-03-08T23:54:06.000Z,27.6
2018-03-08T23:55:06.000Z,27.7
2018-03-08T23:57:06.000Z,27.7
2018-03-08T23:58:06.000Z,27.6
